Time;durP1;ratioP1;P1;durP2;ratioP2;P2;SDS_P1;SDS_P2;PMS_P1;PMS_P2;Temp;Humidity;BMP_temperature;BMP_pressure;BME280_temperature;BME280_humidity;BME280_pressure;Samples;Min_cycle;Max_cycle;Signal;HPM_P1;HPM_P2
2022/09/10 00:00:58;;;;;;;3.00;2.00;;;;;;;11.14;83.32;99124.77;104697;1273;64210;-24
2022/09/10 00:03:26;;;;;;;2.70;1.90;;;;;;;11.59;82.59;99121.04;104693;1274;61958;-24
2022/09/10 00:05:53;;;;;;;2.90;1.80;;;;;;;11.84;81.27;99112.69;104707;1273;75683;-24
2022/09/10 00:08:20;;;;;;;3.10;2.00;;;;;;;11.78;80.96;99114.24;104568;1274;77299;-24
2022/09/10 00:10:49;;;;;;;4.10;2.20;;;;;;;11.57;81.59;99108.02;104493;1275;75352;-24
2022/09/10 00:13:20;;;;;;;3.50;2.10;;;;;;;11.32;82.23;99103.99;104736;1275;63238;-24
2022/09/10 00:15:49;;;;;;;4.30;2.70;;;;;;;11.19;83.16;99103.45;104733;1274;62898;-24
2022/09/10 00:18:18;;;;;;;5.50;2.50;;;;;;;11.56;82.45;99095.92;104774;1273;74729;-24
2022/09/10 00:20:46;;;;;;;3.70;2.20;;;;;;;11.62;81.81;99094.67;104742;1274;76868;-24
2022/09/10 00:23:14;;;;;;;2.70;2.00;;;;;;;11.46;82.11;99093.25;104742;1273;75475;-24
2022/09/10 00:25:41;;;;;;;2.30;1.60;;;;;;;11.27;82.64;99094.14;104632;1273;61153;-24
2022/09/10 00:28:08;;;;;;;2.90;1.70;;;;;;;11.38;83.10;99096.23;104602;1273;61791;-24
2022/09/10 00:30:40;;;;;;;3.20;1.70;;;;;;;11.70;81.80;99091.45;104632;1273;75517;-25
2022/09/10 00:33:07;;;;;;;4.00;2.50;;;;;;;11.63;81.56;99090.77;104379;1274;76950;-24
2022/09/10 00:35:34;;;;;;;6.70;2.50;;;;;;;11.40;82.27;99095.72;104579;1273;75437;-24
2022/09/10 00:38:02;;;;;;;2.70;1.30;;;;;;;11.21;83.02;99092.02;104904;1273;62771;-24
2022/09/10 00:40:29;;;;;;;3.10;1.60;;;;;;;11.51;82.81;99094.20;104896;1273;63086;-24
2022/09/10 00:42:57;;;;;;;3.30;1.80;;;;;;;11.86;81.45;99091.09;104740;1273;74566;-24
2022/09/10 00:45:29;;;;;;;4.30;1.90;;;;;;;11.80;81.03;99086.59;104903;1273;77241;-24
2022/09/10 00:48:02;;;;;;;2.20;1.80;;;;;;;11.57;81.61;99077.92;104626;1272;74414;-24
2022/09/10 00:50:39;;;;;;;1.90;1.40;;;;;;;11.29;82.54;99073.33;104320;1274;61821;-24
2022/09/10 00:53:08;;;;;;;3.00;2.00;;;;;;;11.21;83.60;99069.30;104563;1273;62926;-24
2022/09/10 00:55:36;;;;;;;3.00;2.10;;;;;;;11.65;82.73;99072.23;104685;1274;75725;-25
2022/09/10 00:58:04;;;;;;;4.00;2.70;;;;;;;11.84;81.19;99068.01;104786;1275;76913;-24
2022/09/10 01:00:31;;;;;;;3.50;2.10;;;;;;;11.66;81.70;99070.16;104665;1274;73311;-24
2022/09/10 01:02:58;;;;;;;4.10;3.00;;;;;;;11.45;82.36;99066.89;104579;1273;62013;-25
2022/09/10 01:05:25;;;;;;;2.20;1.40;;;;;;;11.25;83.14;99062.35;104670;1274;63335;-25
2022/09/10 01:07:52;;;;;;;3.30;2.10;;;;;;;11.57;82.84;99059.66;104630;1273;75829;-24
2022/09/10 01:10:23;;;;;;;2.90;2.00;;;;;;;11.83;81.45;99048.26;104672;1273;77344;-24
2022/09/10 01:13:10;;;;;;;3.00;1.90;;;;;;;11.75;81.46;99043.21;104575;1274;75274;-24
2022/09/10 01:16:04;;;;;;;4.30;2.20;;;;;;;11.51;81.80;99041.04;104732;1273;63127;-24
2022/09/10 01:18:58;;;;;;;3.30;2.10;;;;;;;11.19;83.05;99038.48;104753;1273;61762;-24
2022/09/10 01:21:33;;;;;;;3.20;2.10;;;;;;;11.48;83.17;99046.30;104749;1274;74698;-24
2022/09/10 01:24:28;;;;;;;3.30;2.00;;;;;;;11.58;81.95;99053.11;104444;1274;74418;-24
2022/09/10 01:27:27;;;;;;;6.50;2.30;;;;;;;11.39;82.82;99054.04;104765;1274;74440;-24
2022/09/10 01:30:04;;;;;;;2.90;1.90;;;;;;;11.20;83.45;99043.83;104875;1273;63246;-24
2022/09/10 01:32:43;;;;;;;3.50;2.20;;;;;;;11.54;82.59;99041.31;104953;1273;63189;-24
2022/09/10 01:35:27;;;;;;;5.70;2.80;;;;;;;11.66;81.91;99037.34;104718;1274;74706;-24
2022/09/10 01:37:55;;;;;;;3.20;2.00;;;;;;;11.48;82.56;99041.27;104641;1274;76957;-24
2022/09/10 01:40:28;;;;;;;1.50;1.20;;;;;;;11.27;82.67;99040.61;104393;1273;75383;-24
2022/09/10 01:43:07;;;;;;;2.10;1.10;;;;;;;11.31;83.51;99035.39;104576;1274;62027;-24
2022/09/10 01:46:24;;;;;;;1.30;0.80;;;;;;;11.51;82.66;99034.11;104329;1273;63367;-24
2022/09/10 01:49:07;;;;;;;2.40;1.50;;;;;;;11.46;82.87;99033.27;104616;1276;73963;-24
2022/09/10 01:51:42;;;;;;;2.00;1.30;;;;;;;11.17;83.25;99025.68;104480;1274;77405;-24
2022/09/10 01:54:25;;;;;;;2.70;1.70;;;;;;;11.11;84.22;99025.30;104698;1273;74385;-24
2022/09/10 01:57:27;;;;;;;3.20;2.00;;;;;;;11.53;82.93;99023.84;104846;1274;63376;-24
2022/09/10 02:00:11;;;;;;;3.10;1.90;;;;;;;11.60;82.44;99018.86;104455;1274;61750;-24
2022/09/10 02:02:51;;;;;;;4.50;2.50;;;;;;;11.41;82.57;99014.11;104885;1273;75885;-24
2022/09/10 02:05:20;;;;;;;3.30;2.00;;;;;;;11.17;83.28;99011.58;104645;1273;76039;-24
2022/09/10 02:07:52;;;;;;;;;;;;;;;11.53;82.92;99007.66;104641;1274;75870;-25
2022/09/10 02:10:20;;;;;;;3.40;1.90;;;;;;;11.74;81.80;98999.90;104790;1274;61366;-25
2022/09/10 02:12:47;;;;;;;2.70;1.50;;;;;;;11.65;81.73;98999.02;104683;1276;63242;-25
2022/09/10 02:15:33;;;;;;;2.60;1.20;;;;;;;11.31;82.69;98994.39;104719;1274;74595;-25
2022/09/10 02:18:31;;;;;;;2.20;0.90;;;;;;;11.10;84.15;98996.49;104568;1276;75720;-25
2022/09/10 02:20:58;;;;;;;3.00;1.90;;;;;;;11.51;83.24;98996.20;104521;1276;74228;-26
2022/09/10 02:23:36;;;;;;;3.20;1.90;;;;;;;11.72;81.70;98999.09;104663;1274;63166;-25
2022/09/10 02:26:03;;;;;;;3.90;2.10;;;;;;;11.56;81.89;99003.73;104691;1275;61879;-25
2022/09/10 02:28:30;;;;;;;2.50;1.40;;;;;;;11.34;82.58;99007.52;104594;1275;76522;-26
2022/09/10 02:30:57;;;;;;;2.20;1.30;;;;;;;11.16;83.29;99008.70;104599;1276;76924;-25
2022/09/10 02:33:25;;;;;;;2.70;1.30;;;;;;;11.52;82.89;99003.41;104625;1274;75457;-26
2022/09/10 02:35:53;;;;;;;2.40;1.40;;;;;;;11.84;81.58;99000.31;104565;1274;62216;-25
2022/09/10 02:38:20;;;;;;;2.90;1.80;;;;;;;11.77;81.25;99004.91;104454;1276;62010;-25
2022/09/10 02:40:50;;;;;;;4.40;1.70;;;;;;;11.52;82.13;99005.52;104570;1274;76486;-25
2022/09/10 02:43:17;;;;;;;1.50;1.00;;;;;;;11.30;82.71;99004.95;104674;1274;77008;-25
2022/09/10 02:45:44;;;;;;;1.40;1.10;;;;;;;11.29;82.99;99003.24;104636;1275;75481;-26
2022/09/10 02:48:12;;;;;;;3.70;1.40;;;;;;;11.58;82.38;98997.85;104596;1274;63074;-26
2022/09/10 02:50:40;;;;;;;1.60;1.30;;;;;;;11.61;81.86;98994.63;104671;1274;63034;-26
2022/09/10 02:53:08;;;;;;;2.50;1.50;;;;;;;11.36;82.40;98991.25;104720;1274;76564;-26
2022/09/10 02:55:35;;;;;;;2.40;1.20;;;;;;;11.17;82.95;98994.23;104669;1276;74664;-26
2022/09/10 02:58:02;;;;;;;3.60;1.80;;;;;;;11.47;83.05;98991.36;104745;1275;75411;-27
2022/09/10 03:00:31;;;;;;;2.30;1.50;;;;;;;11.75;81.36;98988.39;104736;1274;63200;-27
2022/09/10 03:02:59;;;;;;;3.40;1.80;;;;;;;11.65;81.23;98985.77;104766;1274;63304;-27
2022/09/10 03:05:29;;;;;;;1.80;1.20;;;;;;;11.43;81.97;98986.27;104728;1274;74751;-27
2022/09/10 03:07:56;;;;;;;1.60;1.20;;;;;;;11.15;83.04;98984.48;104650;1275;76019;-27
2022/09/10 03:10:23;;;;;;;3.40;1.70;;;;;;;11.35;83.09;98983.28;104931;1273;73645;-27
2022/09/10 03:12:51;;;;;;;5.20;2.60;;;;;;;11.68;81.57;98985.86;104571;1273;62771;-27
2022/09/10 03:15:19;;;;;;;3.30;2.50;;;;;;;11.62;81.51;98985.88;104803;1274;62004;-27
2022/09/10 03:17:46;;;;;;;2.90;1.80;;;;;;;11.42;82.15;98986.55;104697;1273;76736;-25
2022/09/10 03:20:13;;;;;;;3.40;1.80;;;;;;;11.14;82.74;98988.03;104756;1273;77377;-26
2022/09/10 03:22:40;;;;;;;4.60;2.20;;;;;;;11.13;83.46;98981.52;104691;1274;74988;-26
2022/09/10 03:25:10;;;;;;;2.50;1.60;;;;;;;11.56;82.37;98973.84;104869;1273;63141;-26
2022/09/10 03:27:38;;;;;;;3.10;1.70;;;;;;;11.55;81.83;98967.14;104978;1273;61160;-27
2022/09/10 03:30:07;;;;;;;2.40;1.20;;;;;;;11.32;82.25;98966.36;104755;1273;76586;-26
2022/09/10 03:32:34;;;;;;;2.10;1.00;;;;;;;11.13;82.83;98964.52;104743;1274;75807;-26
2022/09/10 03:35:02;;;;;;;3.90;1.30;;;;;;;11.11;83.55;98959.23;104964;1273;74918;-26
2022/09/10 03:37:30;;;;;;;3.00;1.60;;;;;;;11.43;82.80;98966.45;104595;1274;61057;-26
2022/09/10 03:39:57;;;;;;;2.20;1.60;;;;;;;11.57;82.07;98962.50;104597;1273;62000;-26
2022/09/10 03:42:24;;;;;;;2.60;1.80;;;;;;;11.43;82.12;98961.45;104693;1273;76887;-26
2022/09/10 03:44:52;;;;;;;2.40;1.70;;;;;;;11.17;82.23;98958.39;104896;1273;77250;-26
2022/09/10 03:47:19;;;;;;;2.10;1.30;;;;;;;11.03;83.65;98954.05;104695;1274;74104;-26
2022/09/10 03:49:46;;;;;;;2.00;1.20;;;;;;;11.52;82.88;98945.71;104647;1274;61853;-26
2022/09/10 03:52:13;;;;;;;1.90;1.10;;;;;;;11.71;81.27;98936.77;104952;1273;63223;-26
2022/09/10 03:54:40;;;;;;;2.30;1.40;;;;;;;11.52;81.50;98936.48;105048;1273;76371;-27
2022/09/10 03:57:07;;;;;;;6.10;1.20;;;;;;;11.22;82.38;98931.52;104723;1273;76551;-26
2022/09/10 03:59:34;;;;;;;2.80;1.40;;;;;;;10.95;83.71;98929.30;104648;1274;74392;-26
2022/09/10 04:02:01;;;;;;;4.20;1.70;;;;;;;11.27;83.81;98927.48;104684;1276;61816;-26
2022/09/10 04:04:30;;;;;;;2.70;1.40;;;;;;;11.58;82.31;98924.70;104726;1276;62220;-26
2022/09/10 04:06:57;;;;;;;4.90;2.40;;;;;;;11.46;81.78;98930.55;104952;1273;75533;-26
2022/09/10 04:09:24;;;;;;;6.40;2.80;;;;;;;11.30;82.37;98941.62;104561;1273;76044;-26
2022/09/10 04:11:51;;;;;;;5.60;2.80;;;;;;;11.13;82.94;98950.60;104560;1274;74235;-26
2022/09/10 04:14:21;;;;;;;4.20;2.40;;;;;;;11.39;82.46;98948.89;105018;1274;63326;-26
2022/09/10 04:16:48;;;;;;;4.10;1.70;;;;;;;11.74;81.77;98947.81;104690;1276;62107;-26
2022/09/10 04:19:17;;;;;;;4.20;1.70;;;;;;;11.65;81.13;98946.97;104785;1274;75753;-26
2022/09/10 04:21:45;;;;;;;4.00;1.80;;;;;;;11.38;82.48;98946.50;104871;1273;77099;-27
2022/09/10 04:24:12;;;;;;;2.60;1.40;;;;;;;11.19;82.63;98947.80;104685;1273;74851;-26
2022/09/10 04:26:40;;;;;;;2.70;1.20;;;;;;;10.99;83.66;98952.27;104983;1273;63412;-26
2022/09/10 04:29:08;;;;;;;3.80;1.50;;;;;;;11.31;83.36;98954.23;105004;1273;62927;-26
2022/09/10 04:31:35;;;;;;;3.80;1.70;;;;;;;11.56;82.08;98954.89;104779;1273;76989;-26
2022/09/10 04:34:09;;;;;;;3.50;2.20;;;;;;;11.59;82.00;98961.60;104701;1273;76331;-26
2022/09/10 04:36:36;;;;;;;4.00;2.10;;;;;;;11.37;82.00;98962.98;104646;1273;75130;-26
2022/09/10 04:39:03;;;;;;;6.00;2.90;;;;;;;11.08;83.50;98965.62;104554;1275;64488;-26
2022/09/10 04:41:30;;;;;;;10.90;5.90;;;;;;;11.47;83.49;98971.71;104823;1273;63512;-26
2022/09/10 04:43:57;;;;;;;9.00;4.90;;;;;;;11.72;81.57;98976.50;104678;1275;75887;-27
2022/09/10 04:46:25;;;;;;;6.40;3.10;;;;;;;11.63;81.51;98975.66;104418;1276;75961;-26
2022/09/10 04:48:53;;;;;;;3.80;2.00;;;;;;;11.43;82.13;98978.83;104755;1274;75430;-27
2022/09/10 04:51:22;;;;;;;3.40;1.10;;;;;;;11.24;82.63;98977.59;104894;1271;64638;-27
2022/09/10 04:53:52;;;;;;;2.30;1.30;;;;;;;11.61;82.31;98976.39;104986;1274;63313;-27
2022/09/10 04:56:23;;;;;;;3.10;1.40;;;;;;;11.91;80.98;98977.05;104973;1273;76268;-27
2022/09/10 04:58:50;;;;;;;3.60;1.90;;;;;;;11.80;80.78;98977.72;104727;1273;77027;-26
2022/09/10 05:01:18;;;;;;;2.00;0.90;;;;;;;11.60;81.41;98973.83;104742;1273;75414;-27
2022/09/10 05:03:49;;;;;;;2.10;0.80;;;;;;;11.35;82.06;98967.45;104744;1273;62970;-26
2022/09/10 05:06:17;;;;;;;2.30;1.60;;;;;;;11.21;83.37;98955.27;104924;1273;63281;-26
2022/09/10 05:08:45;;;;;;;4.00;2.30;;;;;;;11.60;82.99;98947.07;104823;1273;76812;-27
2022/09/10 05:11:12;;;;;;;5.60;2.00;;;;;;;11.76;81.68;98938.36;104630;1273;76985;-26
2022/09/10 05:13:40;;;;;;;8.00;3.60;;;;;;;11.57;82.15;98931.69;104872;1273;75386;-26
2022/09/10 05:16:07;;;;;;;8.70;4.20;;;;;;;11.30;83.34;98922.90;104934;1273;62891;-27
2022/09/10 05:18:34;;;;;;;6.40;3.50;;;;;;;11.27;84.14;98912.94;104716;1274;62853;-27
2022/09/10 05:21:04;;;;;;;3.20;2.10;;;;;;;11.60;82.67;98909.02;104904;1273;76866;-26
2022/09/10 05:23:32;;;;;;;3.00;1.80;;;;;;;11.73;82.08;98911.82;104645;1273;75547;-26
2022/09/10 05:26:00;;;;;;;6.00;2.10;;;;;;;11.62;82.11;98914.60;104775;1273;75362;-25
2022/09/10 05:28:27;;;;;;;4.80;1.70;;;;;;;11.43;82.80;98920.55;104684;1274;62583;-27
2022/09/10 05:30:54;;;;;;;3.20;1.70;;;;;;;11.34;83.81;98920.47;104611;1274;61998;-26
2022/09/10 05:33:23;;;;;;;4.70;1.90;;;;;;;11.71;83.39;98921.58;104618;1276;76560;-26
2022/09/10 05:35:50;;;;;;;3.10;1.40;;;;;;;12.02;81.49;98923.05;104991;1273;77583;-24
2022/09/10 05:38:19;;;;;;;3.40;1.80;;;;;;;11.83;81.70;98929.32;104850;1274;75192;-25
2022/09/10 05:40:47;;;;;;;4.50;2.20;;;;;;;11.68;81.92;98934.23;104940;1273;62144;-24
2022/09/10 05:43:14;;;;;;;2.10;1.00;;;;;;;11.54;82.67;98929.72;104721;1274;61797;-24
2022/09/10 05:45:42;;;;;;;3.80;1.50;;;;;;;11.88;82.40;98923.44;104993;1273;76968;-25
2022/09/10 05:48:09;;;;;;;3.70;2.40;;;;;;;12.23;81.09;98907.99;104607;1274;75981;-25
2022/09/10 05:50:37;;;;;;;2.80;1.40;;;;;;;12.18;80.95;98899.73;104668;1274;75318;-25
2022/09/10 05:53:04;;;;;;;2.40;1.20;;;;;;;11.97;81.19;98895.11;104992;1273;62877;-27
2022/09/10 05:55:32;;;;;;;1.50;0.80;;;;;;;11.59;82.98;98902.79;104954;1273;62811;-27
2022/09/10 05:57:59;;;;;;;2.20;1.30;;;;;;;11.54;83.70;98904.10;104978;1273;76630;-27
2022/09/10 06:00:26;;;;;;;2.50;1.50;;;;;;;11.95;82.21;98903.35;105101;1274;75945;-27
2022/09/10 06:02:58;;;;;;;3.80;1.70;;;;;;;12.00;81.85;98904.97;104981;1273;75439;-27
2022/09/10 06:05:29;;;;;;;3.40;1.70;;;;;;;11.87;82.09;98903.88;104614;1273;62962;-27
2022/09/10 06:07:56;;;;;;;3.90;2.10;;;;;;;11.73;82.48;98904.73;104559;1274;62025;-27
2022/09/10 06:10:23;;;;;;;4.00;1.70;;;;;;;11.66;83.06;98901.08;104849;1273;75591;-27
2022/09/10 06:12:50;;;;;;;3.50;2.10;;;;;;;12.04;81.79;98900.61;104944;1273;77595;-27
2022/09/10 06:15:18;;;;;;;4.20;2.00;;;;;;;12.20;81.53;98905.69;104752;1274;75458;-27
2022/09/10 06:17:47;;;;;;;9.20;2.60;;;;;;;12.11;81.05;98901.77;105029;1273;62938;-25
2022/09/10 06:20:15;;;;;;;7.20;2.60;;;;;;;11.87;81.55;98900.18;104934;1273;63335;-25
2022/09/10 06:22:43;;;;;;;4.20;2.30;;;;;;;11.64;83.01;98897.14;104652;1273;76374;-27
2022/09/10 06:25:11;;;;;;;5.50;2.70;;;;;;;12.06;82.24;98895.25;104651;1273;74988;-27
2022/09/10 06:27:39;;;;;;;4.10;2.10;;;;;;;12.39;81.16;98895.08;104667;1274;75463;-27
2022/09/10 06:30:07;;;;;;;4.80;2.50;;;;;;;12.39;81.13;98896.27;105006;1273;63029;-27
2022/09/10 06:32:38;;;;;;;4.00;2.30;;;;;;;12.23;81.11;98898.44;104902;1273;61757;-26
2022/09/10 06:35:07;;;;;;;2.90;1.60;;;;;;;12.02;81.63;98892.44;104637;1274;76647;-27
2022/09/10 06:37:35;;;;;;;4.10;2.00;;;;;;;12.31;81.67;98888.50;104380;1274;76229;-27
2022/09/10 06:40:06;;;;;;;4.70;2.60;;;;;;;12.57;80.73;98881.75;104557;1276;75461;-27
2022/09/10 06:42:33;;;;;;;3.30;2.30;;;;;;;12.51;80.82;98879.66;104749;1274;61708;-27
2022/09/10 06:45:12;;;;;;;4.40;2.30;;;;;;;12.22;81.37;98879.85;104920;1274;62929;-27
2022/09/10 06:47:59;;;;;;;3.70;2.40;;;;;;;11.96;82.17;98870.00;104696;1272;76518;-25
2022/09/10 06:50:54;;;;;;;4.40;2.60;;;;;;;12.27;81.78;98863.96;104697;1274;76301;-25
2022/09/10 06:53:27;;;;;;;4.30;2.20;;;;;;;12.38;81.52;98862.48;104731;1275;75708;-25
2022/09/10 06:55:54;;;;;;;3.70;2.10;;;;;;;12.32;81.30;98861.62;104744;1274;62137;-26
2022/09/10 06:58:23;;;;;;;2.70;1.70;;;;;;;12.16;81.56;98867.55;105033;1273;63403;-26
2022/09/10 07:00:50;;;;;;;3.00;1.90;;;;;;;11.96;82.47;98873.48;104693;1273;76669;-27
2022/09/10 07:03:20;;;;;;;6.60;3.00;;;;;;;12.35;82.08;98876.67;105029;1273;76136;-27
2022/09/10 07:05:47;;;;;;;4.80;2.90;;;;;;;12.67;80.72;98877.70;104659;1273;74424;-27
2022/09/10 07:08:15;;;;;;;5.80;3.00;;;;;;;12.67;80.59;98880.10;104985;1273;61135;-27
2022/09/10 07:10:43;;;;;;;5.80;3.40;;;;;;;12.48;81.16;98884.20;104492;1273;62727;-27
2022/09/10 07:13:14;;;;;;;5.30;3.30;;;;;;;12.26;82.19;98883.40;104622;1274;76830;-27
2022/09/10 07:15:45;;;;;;;6.00;4.00;;;;;;;12.15;82.38;98879.63;104480;1274;76967;-27
2022/09/10 07:18:13;;;;;;;12.40;7.50;;;;;;;12.69;81.80;98875.83;104469;1273;75717;-27
2022/09/10 07:20:44;;;;;;;13.10;6.60;;;;;;;13.08;79.78;98871.95;104607;1273;62976;-26
2022/09/10 07:23:12;;;;;;;6.00;4.20;;;;;;;13.05;79.62;98873.19;104492;1274;63360;-27
2022/09/10 07:25:40;;;;;;;6.60;4.90;;;;;;;12.84;80.02;98875.09;104622;1274;76541;-27
2022/09/10 07:28:16;;;;;;;6.90;4.50;;;;;;;12.59;80.70;98878.45;104705;1274;77097;-27
2022/09/10 07:30:46;;;;;;;6.80;4.20;;;;;;;12.44;82.21;98875.80;104619;1274;75467;-27
2022/09/10 07:33:14;;;;;;;7.70;4.50;;;;;;;12.95;81.37;98871.08;104818;1273;61848;-25
2022/09/10 07:35:42;;;;;;;10.80;5.50;;;;;;;13.21;79.86;98872.01;104953;1274;63440;-26
2022/09/10 07:38:12;;;;;;;9.50;5.50;;;;;;;13.14;79.68;98873.30;104715;1273;75049;-26
2022/09/10 07:40:42;;;;;;;11.60;6.70;;;;;;;12.94;80.03;98872.79;104631;1273;76093;-27
2022/09/10 07:43:09;;;;;;;9.70;4.80;;;;;;;12.68;80.82;98875.01;104468;1275;75487;-27
2022/09/10 07:45:39;;;;;;;13.90;7.60;;;;;;;12.77;81.53;98876.80;104795;1273;62378;-27
2022/09/10 07:48:07;;;;;;;17.30;10.90;;;;;;;13.15;80.13;98871.15;104623;1274;63688;-27
2022/09/10 07:50:37;;;;;;;6.00;4.40;;;;;;;13.21;79.43;98870.93;104625;1274;76861;-26
2022/09/10 07:53:05;;;;;;;6.60;4.90;;;;;;;12.93;79.35;98868.92;104702;1273;76135;-26
2022/09/10 07:55:33;;;;;;;5.60;4.20;;;;;;;12.62;80.89;98874.21;104749;1273;75447;-26
2022/09/10 07:58:00;;;;;;;6.10;4.60;;;;;;;12.50;81.87;98869.91;104616;1273;64987;-26
2022/09/10 08:00:29;;;;;;;7.10;4.50;;;;;;;12.92;81.02;98866.37;104852;1273;63339;-27
2022/09/10 08:02:57;;;;;;;7.70;5.10;;;;;;;13.03;79.79;98858.16;104630;1274;75491;-26
2022/09/10 08:05:26;;;;;;;6.90;5.10;;;;;;;12.92;80.22;98852.04;104630;1273;76008;-26
2022/09/10 08:07:54;;;;;;;9.50;5.30;;;;;;;12.73;80.67;98849.51;104613;1274;75146;-26
2022/09/10 08:10:21;;;;;;;7.70;4.80;;;;;;;12.52;81.77;98851.41;104709;1274;64642;-25
2022/09/10 08:12:49;;;;;;;8.80;5.60;;;;;;;12.80;81.64;98844.27;105013;1274;61644;-25
2022/09/10 08:15:16;;;;;;;8.30;5.60;;;;;;;13.13;80.62;98840.70;105002;1274;76867;-25
2022/09/10 08:17:44;;;;;;;10.00;6.90;;;;;;;12.99;80.48;98835.23;104646;1276;77050;-25
2022/09/10 08:20:12;;;;;;;10.40;6.30;;;;;;;12.82;81.61;98829.96;104549;1274;74260;-25
2022/09/10 08:22:41;;;;;;;8.50;6.30;;;;;;;12.68;81.60;98824.50;104985;1273;61877;-25
2022/09/10 08:25:09;;;;;;;11.20;7.30;;;;;;;12.61;83.05;98820.85;104914;1273;63135;-25
2022/09/10 08:27:37;;;;;;;15.30;10.80;;;;;;;13.03;81.44;98819.34;104559;1274;75375;-25
2022/09/10 08:30:07;;;;;;;14.50;10.70;;;;;;;13.16;80.85;98814.91;104787;1273;77435;-24
2022/09/10 08:32:35;;;;;;;12.10;8.30;;;;;;;13.08;81.20;98809.46;104300;1274;74480;-24
2022/09/10 08:35:04;;;;;;;7.30;4.60;;;;;;;12.78;82.19;98807.35;104706;1273;63363;-24
2022/09/10 08:37:33;;;;;;;5.00;3.50;;;;;;;13.15;82.10;98799.87;104586;1274;63084;-24
2022/09/10 08:40:00;;;;;;;3.80;3.30;;;;;;;13.53;80.16;98794.92;104673;1274;76903;-24
2022/09/10 08:42:31;;;;;;;5.50;3.90;;;;;;;13.46;79.54;98794.14;104742;1274;75613;-24
2022/09/10 08:45:20;;;;;;;4.20;3.40;;;;;;;13.38;80.05;98795.46;104639;1274;74486;-24
2022/09/10 08:47:54;;;;;;;3.90;2.60;;;;;;;13.12;80.62;98796.83;104291;1274;62851;-24
2022/09/10 08:50:35;;;;;;;3.10;2.00;;;;;;;12.87;82.18;98792.91;104737;1276;61653;-24
2022/09/10 08:53:15;;;;;;;4.70;3.80;;;;;;;13.40;80.27;98792.10;104598;1275;76631;-24
2022/09/10 08:55:43;;;;;;;6.30;4.30;;;;;;;13.52;79.52;98789.20;104778;1274;77204;-24
2022/09/10 08:58:24;;;;;;;6.30;5.20;;;;;;;13.37;79.50;98794.82;104714;1273;74442;-24
2022/09/10 09:00:56;;;;;;;7.40;6.30;;;;;;;13.14;80.80;98795.95;104494;1274;62058;-24
2022/09/10 09:03:31;;;;;;;10.60;7.60;;;;;;;12.95;81.29;98791.65;104300;1275;61274;-24
2022/09/10 09:06:00;;;;;;;9.20;6.60;;;;;;;13.22;80.61;98792.20;104335;1278;76776;-24
2022/09/10 09:08:34;;;;;;;10.50;8.00;;;;;;;13.42;79.89;98780.20;104358;1277;75985;-24
2022/09/10 09:11:16;;;;;;;11.70;8.40;;;;;;;13.21;79.81;98775.05;104278;1277;75441;-24
2022/09/10 09:13:55;;;;;;;10.40;8.70;;;;;;;12.94;80.84;98769.46;104542;1276;63404;-24
2022/09/10 09:16:26;;;;;;;10.70;8.20;;;;;;;12.82;81.88;98761.73;104269;1274;62262;-24
2022/09/10 09:18:59;;;;;;;14.00;9.40;;;;;;;13.25;81.28;98753.27;104406;1277;76567;-24
2022/09/10 09:22:01;;;;;;;14.30;10.70;;;;;;;13.49;80.03;98743.43;104574;1276;75700;-24
2022/09/10 09:24:53;;;;;;;12.40;9.20;;;;;;;13.28;80.26;98732.03;104578;1276;74191;-24
2022/09/10 09:27:20;;;;;;;16.30;11.80;;;;;;;12.96;82.05;98729.52;104548;1276;61594;-24
2022/09/10 09:30:00;;;;;;;12.50;9.20;;;;;;;12.93;82.52;98730.73;104505;1276;63917;-24
2022/09/10 09:32:28;;;;;;;15.20;11.60;;;;;;;13.34;81.66;98733.02;104504;1275;76543;-24
2022/09/10 09:35:05;;;;;;;17.10;12.30;;;;;;;13.46;80.66;98734.15;104426;1277;75721;-24
2022/09/10 09:37:33;;;;;;;15.50;12.40;;;;;;;13.31;80.86;98736.45;104379;1277;75681;-24
2022/09/10 09:40:13;;;;;;;19.00;13.60;;;;;;;13.12;81.70;98736.94;104303;1276;63148;-24
2022/09/10 09:43:02;;;;;;;12.40;8.50;;;;;;;12.98;82.63;98735.95;104536;1275;62911;-25
2022/09/10 09:45:37;;;;;;;19.70;12.50;;;;;;;13.52;81.12;98738.41;104555;1275;76629;-24
2022/09/10 09:48:05;;;;;;;18.80;13.60;;;;;;;13.68;79.91;98733.02;104408;1278;77422;-24
2022/09/10 09:50:34;;;;;;;16.70;11.80;;;;;;;13.25;81.45;98724.01;104408;1278;74331;-24
2022/09/10 09:53:00;;;;;;;14.10;10.50;;;;;;;13.14;82.06;98726.10;104585;1274;63591;-24
2022/09/10 09:55:39;;;;;;;11.90;7.80;;;;;;;13.00;82.51;98723.25;104550;1274;62031;-25
2022/09/10 09:58:28;;;;;;;12.60;8.00;;;;;;;13.23;82.70;98717.72;104212;1277;76539;-24
2022/09/10 10:01:02;;;;;;;13.90;9.50;;;;;;;13.53;81.82;98713.45;104416;1278;77036;-24
2022/09/10 10:03:29;;;;;;;;;;;;;;;13.46;81.58;98707.98;104503;1277;74200;-25
2022/09/10 10:06:01;;;;;;;9.10;5.70;;;;;;;13.17;83.17;98702.09;104553;1275;61774;-25
2022/09/10 10:08:32;;;;;;;8.00;6.20;;;;;;;13.09;84.37;98697.44;104700;1275;61965;-24
2022/09/10 10:10:59;;;;;;;7.50;5.60;;;;;;;13.56;82.92;98690.98;104769;1274;76894;-25
2022/09/10 10:13:41;;;;;;;10.80;8.10;;;;;;;13.74;81.32;98681.63;104603;1275;76976;-25
2022/09/10 10:16:32;;;;;;;12.20;8.50;;;;;;;13.43;82.59;98683.84;104610;1277;75282;-25
2022/09/10 10:18:59;;;;;;;8.30;4.40;;;;;;;13.30;83.10;98681.43;104505;1274;64794;-24
2022/09/10 10:21:30;;;;;;;11.50;6.70;;;;;;;13.45;83.40;98683.67;103392;1277;1610758;-24
2022/09/10 10:23:57;;;;;;;11.60;7.80;;;;;;;13.62;82.54;98681.14;104648;1274;76812;-23
2022/09/10 10:26:34;;;;;;;10.80;7.60;;;;;;;13.49;82.86;98678.58;104656;1274;75824;-24
2022/09/10 10:29:25;;;;;;;11.20;8.10;;;;;;;13.31;83.56;98676.71;104369;1274;75441;-24
2022/09/10 10:31:52;;;;;;;15.60;10.70;;;;;;;13.36;84.16;98668.70;104647;1274;63790;-24
2022/09/10 10:34:44;;;;;;;18.10;11.50;;;;;;;13.77;82.57;98666.60;104793;1274;62817;-24
2022/09/10 10:37:44;;;;;;;16.30;11.20;;;;;;;13.75;81.78;98658.22;104561;1275;76529;-23
2022/09/10 10:40:25;;;;;;;19.70;11.80;;;;;;;13.51;82.68;98651.70;104629;1276;76028;-26
2022/09/10 10:43:19;;;;;;;11.20;7.20;;;;;;;13.27;84.03;98650.07;104562;1274;75469;-24
2022/09/10 10:46:03;;;;;;;12.70;10.00;;;;;;;13.60;83.60;98643.85;104487;1275;62897;-24
2022/09/10 10:48:46;;;;;;;14.90;9.60;;;;;;;13.78;82.59;98638.02;104597;1274;62064;-24
2022/09/10 10:51:22;;;;;;;10.70;8.20;;;;;;;13.74;82.18;98633.59;104583;1275;75556;-31
2022/09/10 10:54:01;;;;;;;12.30;8.50;;;;;;;13.47;83.14;98628.44;104596;1275;76737;-24
2022/09/10 10:56:36;;;;;;;13.70;6.20;;;;;;;13.36;84.08;98625.62;104682;1274;74485;-24
2022/09/10 10:59:22;;;;;;;10.00;7.10;;;;;;;13.83;83.08;98619.36;104485;1274;62855;-24
2022/09/10 11:01:53;;;;;;;9.30;5.70;;;;;;;14.02;82.05;98615.25;104594;1277;62624;-24
2022/09/10 11:04:41;;;;;;;12.10;8.60;;;;;;;13.85;82.59;98610.77;104500;1276;76668;-24
2022/09/10 11:07:27;;;;;;;10.20;6.90;;;;;;;13.64;83.59;98609.65;104599;1274;76714;-24
2022/09/10 11:09:59;;;;;;;10.10;6.70;;;;;;;13.52;84.44;98608.17;104732;1274;75455;-24
2022/09/10 11:12:28;;;;;;;12.10;6.80;;;;;;;14.06;83.07;98611.14;104466;1274;62909;-24
2022/09/10 11:15:12;;;;;;;13.90;8.40;;;;;;;14.36;81.69;98597.61;104644;1274;63053;-24
2022/09/10 11:17:45;;;;;;;15.00;10.10;;;;;;;14.29;81.33;98596.22;104506;1276;76255;-24
2022/09/10 11:20:17;;;;;;;12.30;8.30;;;;;;;14.06;82.44;98591.25;104633;1274;76082;-24
2022/09/10 11:23:20;;;;;;;11.60;7.60;;;;;;;13.80;84.37;98585.33;104329;1274;75329;-24
2022/09/10 11:26:16;;;;;;;12.70;8.30;;;;;;;14.28;82.95;98588.07;104630;1274;63102;-24
2022/09/10 11:29:06;;;;;;;12.30;9.30;;;;;;;14.32;82.18;98578.39;104538;1274;62338;-24
2022/09/10 11:31:35;;;;;;;15.00;8.40;;;;;;;14.15;82.55;98570.72;104637;1274;75537;-24
2022/09/10 11:34:05;;;;;;;10.60;6.90;;;;;;;14.05;83.78;98564.58;104539;1274;77064;-24
2022/09/10 11:36:56;;;;;;;12.90;8.50;;;;;;;14.44;82.83;98555.91;104473;1274;75884;-25
2022/09/10 11:39:37;;;;;;;12.80;8.40;;;;;;;14.69;81.59;98546.31;104643;1274;63092;-24
2022/09/10 11:42:16;;;;;;;11.90;8.70;;;;;;;14.44;82.07;98543.48;104496;1274;62064;-24
2022/09/10 11:45:05;;;;;;;13.40;8.40;;;;;;;14.29;82.66;98544.46;104591;1275;75310;-24
2022/09/10 11:47:36;;;;;;;11.10;7.80;;;;;;;14.28;83.97;98545.18;104680;1275;77068;-24